Time;durP1;ratioP1;P1;durP2;ratioP2;P2;SDS_P1;SDS_P2;PMS_P1;PMS_P2;Temp;Humidity;BMP_temperature;BMP_pressure;BME280_temperature;BME280_humidity;BME280_pressure;Samples;Min_cycle;Max_cycle;Signal;HPM_P1;HPM_P2
2022/07/12 00:00:54;;;;;;;1.90;1.80;;;15.00;99.90;;;;;;5046044;28;20199;-47
2022/07/12 00:03:21;;;;;;;2.97;2.33;;;14.90;99.90;;;;;;5035155;28;20207;-48
2022/07/12 00:05:49;;;;;;;3.07;2.20;;;14.90;99.90;;;;;;5043726;28;20277;-49
2022/07/12 00:08:16;;;;;;;2.50;2.30;;;14.90;99.90;;;;;;5042753;28;20211;-45
2022/07/12 00:10:43;;;;;;;2.37;2.10;;;14.90;99.90;;;;;;5044484;28;20932;-46
2022/07/12 00:13:10;;;;;;;2.63;2.43;;;14.80;99.90;;;;;;5030889;28;20215;-46
2022/07/12 00:15:37;;;;;;;2.37;1.90;;;14.80;99.90;;;;;;5036466;28;20215;-50
2022/07/12 00:18:04;;;;;;;2.57;2.37;;;14.80;99.90;;;;;;5045384;28;20206;-47
2022/07/12 00:20:31;;;;;;;2.23;2.13;;;14.80;99.90;;;;;;5033178;28;20203;-48
2022/07/12 00:22:59;;;;;;;2.20;2.10;;;14.70;99.90;;;;;;5045612;28;20207;-47
2022/07/12 00:25:26;;;;;;;2.10;1.90;;;14.70;99.90;;;;;;5041255;28;20222;-46
2022/07/12 00:27:53;;;;;;;3.30;2.10;;;14.80;99.90;;;;;;5032155;28;20230;-46
2022/07/12 00:30:21;;;;;;;2.77;2.37;;;14.80;99.90;;;;;;5042257;28;20274;-48
2022/07/12 00:32:48;;;;;;;3.53;2.13;;;14.70;99.90;;;;;;5042831;28;20227;-48
2022/07/12 00:35:15;;;;;;;1.63;1.30;;;14.70;99.90;;;;;;5025336;28;20242;-48
2022/07/12 00:37:42;;;;;;;2.00;1.80;;;14.70;99.90;;;;;;5043229;28;20191;-48
2022/07/12 00:40:12;;;;;;;1.73;1.63;;;14.60;99.90;;;;;;5044661;28;20290;-52
2022/07/12 00:42:39;;;;;;;2.50;2.30;;;14.60;99.90;;;;;;5042943;28;20187;-51
2022/07/12 00:45:08;;;;;;;2.10;2.00;;;14.60;99.90;;;;;;5028085;28;20218;-46
2022/07/12 00:47:40;;;;;;;1.70;1.60;;;14.60;99.90;;;;;;5042027;28;20188;-46
2022/07/12 00:50:09;;;;;;;2.33;1.93;;;14.60;99.90;;;;;;5043460;28;20210;-50
2022/07/12 00:52:37;;;;;;;1.90;1.80;;;14.60;99.90;;;;;;5037189;28;20207;-46
2022/07/12 00:55:05;;;;;;;2.90;2.00;;;14.60;99.90;;;;;;5044546;28;20220;-46
2022/07/12 00:57:33;;;;;;;2.43;1.67;;;14.50;99.90;;;;;;5041207;28;20939;-47
2022/07/12 01:00:01;;;;;;;2.43;2.23;;;14.50;99.90;;;;;;5031460;28;20215;-47
2022/07/12 01:02:28;;;;;;;2.07;1.97;;;14.50;99.90;;;;;;5040367;28;20428;-45
2022/07/12 01:04:56;;;;;;;1.77;1.67;;;14.50;99.90;;;;;;5039691;28;20773;-45
2022/07/12 01:07:24;;;;;;;2.40;2.20;;;14.50;99.90;;;;;;5028293;28;20207;-49
2022/07/12 01:09:52;;;;;;;2.37;2.17;;;14.50;99.90;;;;;;5044881;28;20204;-45
2022/07/12 01:12:19;;;;;;;1.87;1.77;;;14.40;99.90;;;;;;5041864;28;20711;-49
2022/07/12 01:14:49;;;;;;;2.53;2.33;;;14.40;99.90;;;;;;5030251;28;20219;-45
2022/07/12 01:17:18;;;;;;;2.13;1.80;;;14.40;99.90;;;;;;5041775;28;20685;-46
2022/07/12 01:19:45;;;;;;;1.97;1.87;;;14.30;99.90;;;;;;5043420;28;20196;-49
2022/07/12 01:22:16;;;;;;;2.73;2.53;;;14.30;99.90;;;;;;5040844;28;20645;-47
2022/07/12 01:24:45;;;;;;;2.00;1.90;;;14.20;99.90;;;;;;5034689;28;20231;-45
2022/07/12 01:27:13;;;;;;;2.37;2.10;;;14.20;99.90;;;;;;5041706;28;20204;-45
2022/07/12 01:29:40;;;;;;;2.40;2.20;;;14.10;99.90;;;;;;5029282;28;20377;-47
2022/07/12 01:34:50;;;;;;;2.73;2.40;;;14.10;99.90;;;;;;5041155;28;20223;-50
2022/07/12 01:37:19;;;;;;;2.67;2.47;;;14.10;99.90;;;;;;5041999;28;20711;-47
2022/07/12 01:39:48;;;;;;;2.43;2.33;;;14.00;99.90;;;;;;5031264;28;20205;-50
2022/07/12 01:42:15;;;;;;;2.40;2.10;;;13.90;99.90;;;;;;5041393;28;20562;-49
2022/07/12 01:44:43;;;;;;;2.60;2.40;;;13.90;99.90;;;;;;5042176;28;20211;-46
2022/07/12 01:47:10;;;;;;;2.17;1.97;;;13.90;99.90;;;;;;5030507;28;20781;-49
2022/07/12 01:49:37;;;;;;;2.60;2.40;;;13.80;99.90;;;;;;5040918;28;20196;-47
2022/07/12 01:52:04;;;;;;;2.57;2.37;;;13.80;99.90;;;;;;5044202;28;20206;-45
2022/07/12 01:54:31;;;;;;;1.90;1.80;;;13.80;99.90;;;;;;5032433;28;20226;-49
2022/07/12 01:57:00;;;;;;;2.50;2.30;;;13.80;99.90;;;;;;5044026;28;20238;-45
2022/07/12 01:59:27;;;;;;;2.50;2.30;;;13.70;99.90;;;;;;5039952;28;20195;-49
2022/07/12 02:01:54;;;;;;;2.87;2.67;;;13.70;99.90;;;;;;5028359;28;20214;-48
2022/07/12 02:04:21;;;;;;;2.40;2.27;;;13.60;99.90;;;;;;5034545;28;20227;-51
2022/07/12 02:06:49;;;;;;;3.13;2.67;;;13.50;99.90;;;;;;5043427;28;20225;-46
2022/07/12 02:09:16;;;;;;;3.33;3.10;;;13.60;99.90;;;;;;5037570;28;20211;-48
2022/07/12 02:11:44;;;;;;;4.27;3.27;;;13.60;99.90;;;;;;5039983;28;20500;-47
2022/07/12 02:14:13;;;;;;;3.40;3.10;;;13.60;99.90;;;;;;5041833;28;20219;-45
2022/07/12 02:16:41;;;;;;;3.40;3.10;;;13.60;99.90;;;;;;5023682;28;20298;-45
2022/07/12 02:19:07;;;;;;;2.43;2.23;;;13.60;99.90;;;;;;5042302;28;20203;-46
2022/07/12 02:21:35;;;;;;;2.87;2.60;;;13.50;99.90;;;;;;5040477;28;20194;-45
2022/07/12 02:24:02;;;;;;;3.07;2.87;;;13.50;99.90;;;;;;5043305;28;20223;-49
2022/07/12 02:26:28;;;;;;;4.10;3.80;;;13.50;99.90;;;;;;5029935;28;20256;-47
2022/07/12 02:28:56;;;;;;;3.60;3.30;;;13.50;99.90;;;;;;5043642;28;20571;-46
2022/07/12 02:31:25;;;;;;;4.57;4.20;;;13.50;99.90;;;;;;5025432;28;20214;-48
2022/07/12 02:33:52;;;;;;;2.83;2.60;;;13.40;99.90;;;;;;5041948;28;20211;-46
2022/07/12 02:36:19;;;;;;;3.07;2.50;;;13.40;99.90;;;;;;5040129;28;20580;-46
2022/07/12 02:38:46;;;;;;;3.17;2.97;;;13.40;99.90;;;;;;5042731;28;20218;-47
2022/07/12 02:41:13;;;;;;;2.70;2.50;;;13.40;99.90;;;;;;5034097;28;20206;-47
2022/07/12 02:43:40;;;;;;;2.80;2.60;;;13.40;99.90;;;;;;5040848;28;20912;-46
2022/07/12 02:46:08;;;;;;;2.97;2.77;;;13.40;99.90;;;;;;5040750;28;20199;-48
2022/07/12 02:48:37;;;;;;;3.27;2.97;;;13.30;99.90;;;;;;5031347;28;20199;-47
2022/07/12 02:51:05;;;;;;;3.27;3.07;;;13.40;99.90;;;;;;5043140;28;20202;-47
2022/07/12 02:53:33;;;;;;;3.20;2.90;;;13.30;99.90;;;;;;5039260;28;20436;-49
2022/07/12 02:56:00;;;;;;;4.30;3.90;;;13.30;99.90;;;;;;5043090;28;20310;-48
2022/07/12 02:58:27;;;;;;;3.27;3.07;;;13.30;99.90;;;;;;5032137;28;20203;-48
2022/07/12 03:00:54;;;;;;;3.60;2.93;;;13.30;99.90;;;;;;5047113;28;20199;-46
2022/07/12 03:03:21;;;;;;;6.47;3.57;;;13.30;99.90;;;;;;5029632;28;20218;-48
2022/07/12 03:05:49;;;;;;;3.50;3.20;;;13.30;99.90;;;;;;5046603;28;20226;-45
2022/07/12 03:08:16;;;;;;;5.93;3.80;;;13.30;99.90;;;;;;5044699;28;20207;-45
2022/07/12 03:10:43;;;;;;;3.70;3.40;;;13.30;99.90;;;;;;5045644;28;20204;-46
2022/07/12 03:13:10;;;;;;;4.17;3.77;;;13.20;99.90;;;;;;5039646;28;20574;-47
2022/07/12 03:15:37;;;;;;;4.67;4.20;;;13.20;99.90;;;;;;5037822;28;20322;-46
2022/07/12 03:18:04;;;;;;;7.53;3.80;;;13.20;99.90;;;;;;5033799;28;20273;-46
2022/07/12 03:20:32;;;;;;;4.40;3.60;;;13.20;99.90;;;;;;5042175;28;20195;-47
2022/07/12 03:23:00;;;;;;;5.47;3.90;;;13.20;99.90;;;;;;5046698;28;20269;-45
2022/07/12 03:25:27;;;;;;;4.00;3.70;;;13.20;99.90;;;;;;5042394;28;20949;-48
2022/07/12 03:27:54;;;;;;;4.20;3.83;;;13.20;99.90;;;;;;5036114;28;20203;-47
2022/07/12 03:30:21;;;;;;;4.53;3.70;;;13.20;99.90;;;;;;5042580;28;20203;-49
2022/07/12 03:32:48;;;;;;;3.93;3.63;;;13.20;99.90;;;;;;5032911;28;20211;-47
2022/07/12 03:35:15;;;;;;;4.90;4.50;;;13.20;99.90;;;;;;5038014;28;20232;-46
2022/07/12 03:37:44;;;;;;;6.83;4.23;;;13.10;99.90;;;;;;5040083;28;20219;-46
2022/07/12 03:40:14;;;;;;;5.00;4.50;;;13.10;99.90;;;;;;5045148;28;20203;-45
2022/07/12 03:42:41;;;;;;;7.90;4.30;;;13.10;99.90;;;;;;5037279;28;20916;-45
2022/07/12 03:45:08;;;;;;;4.73;4.33;;;13.10;99.90;;;;;;5045278;28;20215;-48
2022/07/12 03:47:36;;;;;;;4.43;4.03;;;13.10;99.90;;;;;;5030597;28;20626;-48
2022/07/12 03:50:04;;;;;;;4.63;4.00;;;13.10;99.90;;;;;;5045734;28;20203;-48
2022/07/12 03:52:31;;;;;;;5.13;4.60;;;13.10;99.90;;;;;;5042344;28;20195;-49
2022/07/12 03:54:59;;;;;;;4.57;4.27;;;13.10;99.90;;;;;;5045880;28;20227;-49
2022/07/12 03:57:27;;;;;;;5.07;4.50;;;13.10;99.90;;;;;;5041967;28;20211;-49
2022/07/12 03:59:55;;;;;;;4.47;4.07;;;13.20;99.90;;;;;;5027143;28;20208;-48
2022/07/12 04:02:21;;;;;;;4.87;4.47;;;13.20;99.90;;;;;;5016922;28;20203;-47
2022/07/12 04:04:49;;;;;;;4.20;3.90;;;13.20;99.90;;;;;;5042214;28;20711;-51
2022/07/12 04:07:16;;;;;;;4.70;4.17;;;13.20;99.90;;;;;;5036482;28;20695;-49
2022/07/12 04:09:43;;;;;;;4.90;4.37;;;13.20;99.90;;;;;;5020446;28;20195;-44
2022/07/12 04:12:09;;;;;;;4.60;4.20;;;13.20;99.90;;;;;;5032415;28;20533;-47
2022/07/12 04:14:38;;;;;;;4.53;4.07;;;13.20;99.90;;;;;;5032443;28;20218;-49
2022/07/12 04:17:05;;;;;;;5.37;4.87;;;13.20;99.90;;;;;;5040817;28;20219;-44
2022/07/12 04:19:33;;;;;;;5.73;5.20;;;13.20;99.90;;;;;;5029807;28;20208;-45
2022/07/12 04:22:01;;;;;;;5.67;5.13;;;13.20;99.90;;;;;;5033547;28;20274;-48
2022/07/12 04:24:28;;;;;;;6.77;5.90;;;13.20;99.90;;;;;;5040341;28;20562;-46
2022/07/12 04:26:54;;;;;;;6.80;6.10;;;13.20;99.90;;;;;;5040645;28;20213;-44
2022/07/12 04:29:22;;;;;;;7.27;5.53;;;13.30;99.90;;;;;;5026081;28;20207;-43
2022/07/12 04:31:50;;;;;;;7.37;5.40;;;13.30;99.90;;;;;;5033155;28;20199;-46
2022/07/12 04:34:17;;;;;;;6.43;5.33;;;13.30;99.90;;;;;;5029102;28;20250;-46
2022/07/12 04:36:44;;;;;;;7.17;5.90;;;13.40;99.90;;;;;;5031082;28;20191;-46
2022/07/12 04:39:12;;;;;;;8.40;6.23;;;13.40;99.90;;;;;;5034690;28;20694;-44
2022/07/12 04:41:38;;;;;;;7.00;5.77;;;13.40;99.90;;;;;;5040512;28;20199;-46
2022/07/12 04:44:06;;;;;;;8.27;6.70;;;13.40;99.90;;;;;;5038818;28;20219;-46
2022/07/12 04:46:33;;;;;;;8.03;7.03;;;13.40;99.90;;;;;;5032878;28;20200;-47
2022/07/12 04:49:01;;;;;;;7.90;6.67;;;13.50;99.90;;;;;;5037869;28;20968;-46
2022/07/12 04:51:28;;;;;;;7.87;7.00;;;13.50;99.90;;;;;;5029433;28;20204;-48
2022/07/12 04:53:56;;;;;;;8.40;7.07;;;13.60;99.90;;;;;;5029713;28;20199;-49
2022/07/12 04:56:23;;;;;;;7.30;6.60;;;13.70;99.90;;;;;;5037638;28;20210;-54
2022/07/12 04:58:49;;;;;;;9.13;7.00;;;13.70;99.90;;;;;;5036840;28;20208;-49
2022/07/12 05:01:16;;;;;;;6.67;5.93;;;13.80;99.90;;;;;;5030481;28;20207;-53
2022/07/12 05:03:43;;;;;;;7.97;6.67;;;13.90;99.90;;;;;;5038645;28;20203;-49
2022/07/12 05:06:11;;;;;;;8.00;6.80;;;14.00;99.90;;;;;;5020815;28;20200;-45
2022/07/12 05:08:38;;;;;;;9.13;6.27;;;14.10;99.90;;;;;;5033115;28;20187;-47
2022/07/12 05:11:06;;;;;;;9.37;7.47;;;14.20;99.90;;;;;;5019934;28;20214;-46
2022/07/12 05:13:33;;;;;;;9.13;7.67;;;14.20;99.90;;;;;;5036225;28;20571;-46
2022/07/12 05:16:00;;;;;;;9.53;6.63;;;14.30;99.90;;;;;;5030257;28;20242;-46
2022/07/12 05:18:27;;;;;;;9.03;7.00;;;14.40;99.90;;;;;;5033581;28;20223;-48
2022/07/12 05:20:53;;;;;;;10.10;7.57;;;14.50;99.90;;;;;;5033564;28;20187;-50
2022/07/12 05:23:21;;;;;;;10.13;8.43;;;14.50;99.90;;;;;;5021325;28;20207;-48
2022/07/12 05:25:48;;;;;;;10.47;7.67;;;14.60;99.90;;;;;;5039165;28;20211;-48
2022/07/12 05:28:15;;;;;;;11.10;7.30;;;14.70;99.90;;;;;;5035197;28;20199;-50
2022/07/12 05:30:43;;;;;;;8.67;7.87;;;14.70;99.90;;;;;;5020570;28;20204;-48
2022/07/12 05:33:12;;;;;;;8.37;7.53;;;14.70;99.90;;;;;;5031550;28;20312;-46
2022/07/12 05:35:39;;;;;;;7.90;6.93;;;14.70;99.90;;;;;;5026899;28;20231;-48
2022/07/12 05:38:06;;;;;;;9.50;7.17;;;14.90;99.90;;;;;;5019624;28;20219;-45
2022/07/12 05:40:34;;;;;;;9.60;7.00;;;14.90;99.90;;;;;;5038935;28;20200;-50
2022/07/12 05:43:01;;;;;;;8.27;7.47;;;15.00;99.90;;;;;;5031039;28;20218;-48
2022/07/12 05:45:28;;;;;;;7.60;6.90;;;15.00;99.90;;;;;;5041502;28;20229;-48
2022/07/12 05:47:55;;;;;;;8.27;7.20;;;15.10;99.90;;;;;;5025885;28;20227;-46
2022/07/12 05:50:22;;;;;;;7.27;6.67;;;15.20;99.90;;;;;;5033814;28;20202;-45
2022/07/12 05:55:34;;;;;;;6.77;6.20;;;15.30;99.90;;;;;;5036751;28;20294;-51
2022/07/12 05:58:02;;;;;;;6.50;5.70;;;15.40;99.90;;;;;;5032599;28;20727;-48
2022/07/12 06:00:28;;;;;;;7.10;6.50;;;15.40;99.90;;;;;;5036166;28;20294;-46
2022/07/12 06:02:55;;;;;;;7.70;6.50;;;15.50;99.90;;;;;;5024066;28;20218;-46
2022/07/12 06:05:22;;;;;;;7.22;6.53;;;15.50;99.90;;;;;;5030923;28;20929;-47
2022/07/12 06:07:49;;;;;;;7.35;6.65;;;15.70;99.90;;;;;;5015310;28;20431;-45
2022/07/12 06:10:16;;;;;;;7.45;6.85;;;16.00;99.90;;;;;;5036633;28;20435;-47
2022/07/12 06:12:45;;;;;;;6.20;5.60;;;16.30;99.90;;;;;;5038429;28;20428;-46
2022/07/12 06:15:14;;;;;;;6.57;5.97;;;16.40;99.90;;;;;;5036288;28;20560;-47
2022/07/12 06:17:41;;;;;;;5.87;5.17;;;16.60;99.90;;;;;;5032220;28;20674;-50
2022/07/12 06:20:09;;;;;;;5.20;4.80;;;16.40;99.90;;;;;;5036221;28;20214;-52
2022/07/12 06:22:36;;;;;;;5.70;5.20;;;16.30;99.90;;;;;;5026956;28;20809;-49
2022/07/12 06:25:03;;;;;;;4.72;4.32;;;16.60;99.90;;;;;;5018298;28;20422;-50
2022/07/12 06:27:29;;;;;;;5.70;5.00;;;16.80;99.90;;;;;;5036195;28;20432;-51
2022/07/12 06:29:57;;;;;;;4.53;4.13;;;17.00;99.90;;;;;;5034257;28;20655;-48
2022/07/12 06:32:24;;;;;;;4.28;3.92;;;17.20;99.90;;;;;;5031713;28;20439;-48
2022/07/12 06:34:50;;;;;;;4.63;4.22;;;17.30;99.90;;;;;;5027478;28;21317;-49
2022/07/12 06:37:17;;;;;;;3.63;3.33;;;17.40;99.90;;;;;;5017901;28;20439;-50
2022/07/12 06:39:46;;;;;;;4.60;4.20;;;17.50;99.90;;;;;;5017530;28;20928;-47
2022/07/12 06:42:13;;;;;;;3.97;3.43;;;17.50;99.90;;;;;;5026121;28;20546;-49
2022/07/12 06:44:50;;;;;;;4.65;3.67;;;17.50;99.90;;;;;;5031265;28;20865;-50
2022/07/12 06:47:18;;;;;;;4.63;3.30;;;17.70;99.90;;;;;;5026937;28;20444;-51
2022/07/12 06:49:45;;;;;;;3.83;3.40;;;17.70;99.90;;;;;;5031040;28;20457;-49
2022/07/12 06:52:12;;;;;;;3.37;2.83;;;17.80;99.90;;;;;;5025307;28;20423;-48
2022/07/12 06:54:38;;;;;;;3.40;2.80;;;17.80;99.90;;;;;;5040407;28;20424;-47
2022/07/12 06:57:06;;;;;;;2.67;2.30;;;17.80;99.90;;;;;;5013089;28;20441;-47
2022/07/12 06:59:33;;;;;;;2.43;2.20;;;17.80;99.90;;;;;;5036938;28;20309;-47
2022/07/12 07:01:59;;;;;;;1.80;1.70;;;17.60;99.90;;;;;;5031210;28;20698;-47
2022/07/12 07:04:27;;;;;;;2.00;1.83;;;17.50;99.90;;;;;;5032007;28;20477;-48
2022/07/12 07:06:54;;;;;;;1.83;1.73;;;17.40;99.90;;;;;;5027800;28;20569;-50
2022/07/12 07:09:21;;;;;;;1.97;1.77;;;17.40;99.90;;;;;;5028683;28;20199;-46
2022/07/12 07:11:48;;;;;;;1.60;1.50;;;17.30;99.90;;;;;;5026558;28;20600;-49
2022/07/12 07:14:14;;;;;;;1.80;1.70;;;17.40;99.90;;;;;;5025407;28;20230;-49
2022/07/12 07:16:41;;;;;;;1.85;1.75;;;17.40;99.90;;;;;;5032249;28;20436;-47
2022/07/12 07:19:08;;;;;;;2.47;2.17;;;17.60;99.90;;;;;;5033632;28;20229;-53
2022/07/12 07:21:36;;;;;;;2.75;2.45;;;17.50;99.90;;;;;;5037572;28;21006;-47
2022/07/12 07:24:03;;;;;;;2.90;2.13;;;17.80;99.90;;;;;;5028656;28;20770;-48
2022/07/12 07:26:32;;;;;;;1.77;1.67;;;17.80;99.90;;;;;;5025173;28;20278;-45
2022/07/12 07:31:43;;;;;;;2.40;2.20;;;17.80;99.90;;;;;;5039822;28;20456;-49
2022/07/12 07:34:10;;;;;;;1.90;1.80;;;17.90;99.90;;;;;;5017997;28;20494;-55
2022/07/12 07:36:38;;;;;;;2.13;1.92;;;18.10;99.90;;;;;;5037572;28;20414;-49
2022/07/12 07:39:05;;;;;;;2.20;2.00;;;18.00;99.90;;;;;;5032271;28;20813;-50
2022/07/12 07:41:32;;;;;;;2.20;1.73;;;18.20;99.90;;;;;;5018877;28;20452;-51
2022/07/12 07:43:58;;;;;;;1.87;1.73;;;18.30;99.90;;;;;;5033158;28;20451;-48
2022/07/12 07:46:25;;;;;;;1.80;1.70;;;18.60;99.90;;;;;;5035744;28;20473;-52
2022/07/12 07:48:52;;;;;;;2.28;2.00;;;18.80;99.90;;;;;;5035942;28;20440;-49
2022/07/12 07:51:18;;;;;;;2.45;1.70;;;18.90;99.90;;;;;;5028429;28;20428;-51
2022/07/12 07:53:47;;;;;;;2.50;1.80;;;18.90;99.90;;;;;;5035619;28;20204;-50
2022/07/12 07:56:13;;;;;;;2.23;1.43;;;18.60;99.90;;;;;;5025282;28;21165;-50
2022/07/12 07:58:40;;;;;;;1.70;1.60;;;18.60;99.90;;;;;;5043599;28;20447;-49
2022/07/12 08:01:07;;;;;;;2.97;1.50;;;18.80;99.90;;;;;;5035691;28;20547;-54
2022/07/12 08:03:34;;;;;;;1.92;1.70;;;18.50;99.90;;;;;;5030810;28;20466;-54
2022/07/12 08:06:01;;;;;;;4.35;1.80;;;18.70;99.90;;;;;;5029772;28;20435;-55
2022/07/12 08:08:28;;;;;;;2.35;1.60;;;18.80;99.90;;;;;;5035214;28;20702;-54
2022/07/12 08:10:56;;;;;;;2.22;1.80;;;18.90;99.90;;;;;;5034316;28;20862;-56
2022/07/12 08:13:24;;;;;;;3.92;1.95;;;19.00;99.90;;;;;;5023599;28;20075;-47
2022/07/12 08:15:50;;;;;;;2.05;1.80;;;18.80;99.90;;;;;;5035240;28;20437;-48
2022/07/12 08:18:18;;;;;;;3.20;1.75;;;19.00;99.90;;;;;;5031816;28;20444;-51
2022/07/12 08:20:45;;;;;;;1.75;1.65;;;19.20;99.90;;;;;;5031865;28;20493;-45
2022/07/12 08:23:12;;;;;;;2.17;1.20;;;19.20;99.90;;;;;;5030414;28;20287;-47
2022/07/12 08:25:39;;;;;;;1.50;1.40;;;18.90;99.90;;;;;;5035714;28;20447;-51
2022/07/12 08:28:07;;;;;;;1.50;1.40;;;19.10;99.90;;;;;;5027399;28;20195;-49
2022/07/12 08:30:34;;;;;;;3.43;1.33;;;19.00;99.90;;;;;;5042328;28;20196;-48
2022/07/12 08:33:01;;;;;;;1.57;1.47;;;19.00;99.90;;;;;;5030473;28;20746;-51
2022/07/12 08:35:28;;;;;;;2.17;1.58;;;19.20;99.90;;;;;;5029738;28;21225;-48
2022/07/12 08:37:54;;;;;;;1.52;1.40;;;19.10;99.90;;;;;;5035944;28;20972;-53
2022/07/12 08:40:21;;;;;;;1.60;1.50;;;19.00;99.90;;;;;;5027328;28;20453;-53
2022/07/12 08:42:48;;;;;;;1.93;1.40;;;19.40;99.90;;;;;;5039021;28;20208;-53
2022/07/12 08:45:16;;;;;;;2.07;1.53;;;19.20;99.90;;;;;;5020441;28;20222;-60
2022/07/12 08:47:44;;;;;;;1.30;1.20;;;19.20;99.90;;;;;;5032642;28;20199;-60
2022/07/12 08:50:16;;;;;;;2.00;1.17;;;19.10;99.90;;;;;;5029762;28;20203;-60
2022/07/12 08:52:45;;;;;;;2.80;1.10;;;19.10;99.90;;;;;;5034993;28;20221;-61
2022/07/12 08:55:20;;;;;;;2.10;1.30;;;19.10;99.90;;;;;;5029889;28;20215;-59
2022/07/12 08:57:49;;;;;;;1.57;1.47;;;19.00;99.90;;;;;;5032292;28;20199;-52
2022/07/12 09:00:17;;;;;;;1.33;1.23;;;19.00;99.90;;;;;;5017801;28;20211;-50
2022/07/12 09:02:45;;;;;;;1.50;1.40;;;18.90;99.90;;;;;;5031282;28;20203;-50
2022/07/12 09:05:13;;;;;;;1.77;1.53;;;18.80;99.90;;;;;;5033208;28;20212;-47
2022/07/12 09:07:40;;;;;;;1.60;1.50;;;18.80;99.90;;;;;;5032929;28;20204;-51
2022/07/12 09:10:09;;;;;;;1.70;1.60;;;18.90;99.90;;;;;;5023752;28;20204;-50
2022/07/12 09:12:36;;;;;;;1.43;1.33;;;19.10;99.90;;;;;;5036648;28;20215;-52
2022/07/12 09:15:14;;;;;;;1.40;1.30;;;19.10;99.90;;;;;;5028582;28;20228;-51
2022/07/12 09:17:48;;;;;;;1.27;1.17;;;19.10;99.90;;;;;;5042100;28;20195;-48
2022/07/12 09:20:16;;;;;;;1.90;1.80;;;19.10;99.90;;;;;;5028670;28;20223;-51
2022/07/12 09:22:52;;;;;;;2.37;1.20;;;18.90;99.90;;;;;;5027010;28;20211;-46
2022/07/12 09:25:21;;;;;;;2.43;1.40;;;18.90;99.90;;;;;;5026147;28;20212;-47
2022/07/12 09:27:51;;;;;;;1.90;1.47;;;18.90;99.90;;;;;;5034236;28;20224;-52
2022/07/12 09:30:18;;;;;;;1.77;1.33;;;19.00;99.90;;;;;;5034639;28;20364;-52
2022/07/12 09:38:25;;;;;;;2.70;1.53;;;19.30;99.90;;;;;;5032132;28;21724;-49
2022/07/12 09:40:52;;;;;;;2.73;1.60;;;19.40;99.90;;;;;;5041946;28;20664;-49
2022/07/12 09:43:20;;;;;;;1.53;1.43;;;19.50;99.90;;;;;;5026462;28;20199;-49
2022/07/12 09:45:48;;;;;;;2.03;1.50;;;19.60;99.90;;;;;;5037215;28;20227;-48
2022/07/12 09:48:16;;;;;;;1.23;1.13;;;19.60;99.90;;;;;;5019423;28;20250;-49
2022/07/12 09:50:48;;;;;;;1.33;1.23;;;19.70;99.90;;;;;;5037895;28;20199;-46
2022/07/12 09:53:20;;;;;;;1.80;1.33;;;19.80;99.90;;;;;;5036874;28;20265;-48
2022/07/12 09:55:50;;;;;;;2.60;1.40;;;19.80;99.90;;;;;;5026933;28;20223;-50
2022/07/12 09:58:22;;;;;;;2.20;1.47;;;19.90;99.90;;;;;;5029857;28;20209;-47
2022/07/12 10:00:51;;;;;;;2.17;1.50;;;19.90;99.90;;;;;;5032544;28;20207;-46
2022/07/12 10:03:22;;;;;;;3.37;1.40;;;19.90;99.90;;;;;;5025069;28;20296;-49
2022/07/12 10:05:51;;;;;;;2.00;1.57;;;20.20;99.90;;;;;;5035613;28;20245;-47
2022/07/12 10:08:21;;;;;;;1.57;1.33;;;20.40;99.90;;;;;;5038311;28;21010;-51
2022/07/12 10:10:49;;;;;;;2.57;1.47;;;20.20;99.90;;;;;;5030275;28;20284;-49
2022/07/12 10:13:16;;;;;;;1.20;1.10;;;20.30;99.90;;;;;;5033310;28;20197;-49
2022/07/12 10:15:44;;;;;;;1.13;1.10;;;20.30;99.90;;;;;;5028318;28;20589;-49
2022/07/12 10:18:17;;;;;;;1.30;1.10;;;20.40;99.90;;;;;;5022467;28;20287;-47
2022/07/12 10:20:46;;;;;;;1.23;0.90;;;20.50;99.90;;;;;;5034836;28;20490;-51
2022/07/12 10:23:37;;;;;;;0.97;0.97;;;20.60;99.90;;;;;;5026655;28;20207;-51
2022/07/12 10:26:26;;;;;;;1.10;1.10;;;20.60;99.90;;;;;;5024075;28;20301;-49
2022/07/12 10:29:01;;;;;;;1.20;1.10;;;20.70;99.90;;;;;;5033309;28;20187;-50
2022/07/12 10:31:31;;;;;;;2.10;1.00;;;20.70;99.90;;;;;;5030078;28;20194;-51
2022/07/12 10:34:10;;;;;;;3.27;1.10;;;20.80;99.90;;;;;;5025908;28;20247;-50
2022/07/12 10:37:10;;;;;;;1.00;0.90;;;20.90;99.90;;;;;;5040320;28;20227;-51
2022/07/12 10:39:37;;;;;;;0.83;0.80;;;21.10;99.90;;;;;;5040463;28;20242;-51
2022/07/12 10:42:15;;;;;;;3.73;1.10;;;21.10;99.90;;;;;;5029103;28;20219;-53
2022/07/12 10:44:45;;;;;;;1.33;1.23;;;21.20;99.90;;;;;;5039072;28;20253;-51
2022/07/12 10:47:14;;;;;;;1.20;1.10;;;21.20;99.90;;;;;;5011277;28;20207;-55
2022/07/12 10:49:48;;;;;;;1.10;0.97;;;21.20;99.90;;;;;;5039896;28;20199;-47
2022/07/12 10:52:23;;;;;;;2.73;1.30;;;21.10;99.90;;;;;;5030167;28;20282;-50
2022/07/12 10:55:16;;;;;;;1.57;1.43;;;21.30;99.90;;;;;;5034192;28;20226;-49
2022/07/12 10:57:46;;;;;;;1.60;1.50;;;21.40;99.90;;;;;;5029845;28;20199;-48
2022/07/12 11:00:15;;;;;;;1.38;1.23;;;21.50;99.90;;;;;;5029659;28;20211;-48
2022/07/12 11:02:42;;;;;;;1.50;1.40;;;21.60;99.90;;;;;;5006052;28;20236;-52
2022/07/12 11:05:09;;;;;;;1.20;1.10;;;21.70;99.90;;;;;;5033380;28;20215;-55
2022/07/12 11:07:38;;;;;;;1.27;1.27;;;21.70;99.90;;;;;;5024113;28;20293;-54
2022/07/12 11:10:06;;;;;;;1.73;1.13;;;21.80;99.90;;;;;;5031856;28;20254;-53
2022/07/12 11:12:33;;;;;;;2.00;1.02;;;21.80;99.90;;;;;;5023127;28;20208;-54
2022/07/12 11:15:00;;;;;;;1.63;1.63;;;21.90;99.90;;;;;;5032807;28;20302;-53
2022/07/12 11:17:28;;;;;;;1.35;1.10;;;22.00;99.90;;;;;;5034599;28;20204;-52
2022/07/12 11:20:10;;;;;;;2.40;1.20;;;22.10;99.90;;;;;;5020626;28;20230;-52
2022/07/12 11:22:41;;;;;;;2.33;1.52;;;22.10;99.90;;;;;;5035542;28;20888;-51
2022/07/12 11:25:10;;;;;;;1.38;1.27;;;22.20;99.90;;;;;;5043081;28;20225;-50
2022/07/12 11:27:37;;;;;;;3.20;1.10;;;22.20;99.90;;;;;;5033601;28;20199;-54
2022/07/12 11:30:06;;;;;;;1.45;1.38;;;22.20;99.90;;;;;;5043235;28;20202;-52
2022/07/12 11:32:37;;;;;;;1.63;1.45;;;22.20;99.90;;;;;;5029129;28;20195;-49
2022/07/12 11:35:04;;;;;;;1.73;1.40;;;22.10;99.90;;;;;;5025242;28;20219;-49
2022/07/12 11:37:31;;;;;;;1.30;1.20;;;22.20;99.90;;;;;;5039654;28;20586;-51
2022/07/12 11:40:00;;;;;;;1.98;1.10;;;22.40;99.90;;;;;;5035073;28;20256;-48
2022/07/12 11:42:27;;;;;;;1.40;1.30;;;22.50;99.90;;;;;;5032703;28;20810;-48
2022/07/12 11:44:53;;;;;;;1.02;1.02;;;22.70;99.90;;;;;;5031312;28;20220;-50
2022/07/12 11:47:23;;;;;;;1.15;1.15;;;22.70;99.90;;;;;;5026118;28;20257;-51
2022/07/12 11:49:52;;;;;;;1.88;1.40;;;22.60;99.90;;;;;;5022826;28;20203;-50
2022/07/12 11:52:19;;;;;;;0.98;0.98;;;22.40;99.90;;;;;;5031574;28;20805;-51
2022/07/12 11:54:48;;;;;;;1.13;0.90;;;22.40;99.90;;;;;;5037841;28;20226;-49
2022/07/12 11:57:20;;;;;;;1.20;1.10;;;22.30;99.90;;;;;;5024864;28;20207;-51
2022/07/12 11:59:47;;;;;;;0.88;0.88;;;22.40;99.90;;;;;;5043993;28;20229;-49
2022/07/12 12:02:15;;;;;;;0.90;0.90;;;22.60;99.90;;;;;;5035739;28;20199;-48
2022/07/12 12:04:47;;;;;;;1.50;1.40;;;22.60;99.90;;;;;;5032790;28;20224;-47
2022/07/12 12:07:16;;;;;;;2.88;0.90;;;22.60;99.90;;;;;;5027237;28;20230;-51
2022/07/12 12:10:03;;;;;;;1.00;1.00;;;22.70;99.90;;;;;;5037672;28;20195;-52
2022/07/12 12:12:38;;;;;;;0.90;0.90;;;22.90;99.90;;;;;;5029469;28;20214;-53
2022/07/12 12:15:07;;;;;;;1.05;1.05;;;22.90;99.90;;;;;;5028007;28;20233;-51
2022/07/12 12:17:35;;;;;;;0.90;0.90;;;23.00;99.90;;;;;;5033645;28;20245;-48
2022/07/12 12:20:10;;;;;;;1.00;1.00;;;22.90;99.90;;;;;;5021461;28;20230;-53
2022/07/12 12:22:38;;;;;;;1.40;1.27;;;23.10;99.90;;;;;;5025181;28;20592;-50
2022/07/12 12:25:12;;;;;;;1.20;1.20;;;23.10;99.90;;;;;;5030726;28;20266;-52
2022/07/12 12:27:45;;;;;;;1.17;1.17;;;23.10;99.90;;;;;;5023584;28;20205;-48
2022/07/12 12:30:13;;;;;;;1.10;1.10;;;23.30;99.90;;;;;;5036368;28;20676;-54
2022/07/12 12:32:51;;;;;;;1.10;1.00;;;23.40;99.90;;;;;;5038291;28;20195;-57
2022/07/12 12:35:20;;;;;;;0.68;0.68;;;23.30;99.90;;;;;;5026356;28;20227;-56
2022/07/12 12:37:55;;;;;;;1.00;0.90;;;23.40;99.90;;;;;;5026859;28;20775;-55
2022/07/12 12:40:25;;;;;;;1.00;1.00;;;23.60;99.90;;;;;;5039977;28;20219;-57
2022/07/12 12:42:54;;;;;;;0.70;0.70;;;23.70;99.90;;;;;;5027550;28;20202;-59
2022/07/12 12:45:22;;;;;;;1.63;1.15;;;23.90;99.90;;;;;;5027697;28;20385;-58
2022/07/12 12:47:53;;;;;;;1.30;1.20;;;23.80;99.90;;;;;;5032212;28;20191;-55
2022/07/12 12:50:36;;;;;;;1.25;0.93;;;23.80;99.90;;;;;;5027443;28;20204;-48
2022/07/12 12:53:08;;;;;;;1.38;1.27;;;23.80;99.90;;;;;;5029087;28;20211;-53
2022/07/12 12:55:34;;;;;;;1.50;1.23;;;23.90;99.90;;;;;;5037293;28;20221;-54
2022/07/12 12:58:02;;;;;;;1.10;1.00;;;24.00;99.90;;;;;;5031149;28;20204;-52
2022/07/12 13:00:29;;;;;;;1.58;0.90;;;24.30;99.90;;;;;;5028319;28;20726;-52
2022/07/12 13:02:59;;;;;;;0.80;0.80;;;24.70;99.90;;;;;;5039479;28;22174;-53
2022/07/12 13:05:26;;;;;;;2.10;1.00;;;24.90;99.90;;;;;;5032809;28;20231;-51